Observation data for Aspermont on 05/14/2018      Previous  Date  Next       Current Mesonet Observations  Soil Data  Daily Summary Page  Observations in Plain Language
KASR 140500Z 14007KT 27/16 A299 RMK A01 T02680155  RH  051%=      5-min Rain = 0
KASR 140505Z 14007G12KT 27/15 A299 RMK A01 T02670154  RH  051%=      5-min Rain = 0
KASR 140510Z 14008G13KT 27/15 A299 RMK A01 T02660154  RH  051%=      5-min Rain = 0
KASR 140515Z 15008KT 27/15 A2989 RMK A01 T02660154  RH  051%=      5-min Rain = 0
KASR 140520Z 15008KT 27/15 A2989 RMK A01 T02650154  RH  052%=      5-min Rain = 0
KASR 140525Z 16008KT 26/15 A2989 RMK A01 T02640154  RH  052%=      5-min Rain = 0
KASR 140530Z 16008KT 26/15 A2989 RMK A01 T02640154  RH  052%=      5-min Rain = 0
KASR 140535Z 16008G13KT 26/15 A2989 RMK A01 T02630154  RH  052%=      5-min Rain = 0
KASR 140540Z 16008KT 26/15 A2989 RMK A01 T02630154  RH  052%=      5-min Rain = 0
KASR 140545Z 15008G14KT 26/15 A2989 RMK A01 T02620154  RH  053%=      5-min Rain = 0
KASR 140550Z 15008KT 26/15 A2989 RMK A01 T02620154  RH  052%=      5-min Rain = 0
KASR 140555Z 15008G14KT 26/15 A2989 RMK A01 T02620154  RH  053%=      5-min Rain = 0
KASR 140600Z 15009G15KT 26/16 A2989 RMK A01 T02620155  RH  053%=      5-min Rain = 0
KASR 140605Z 16010G15KT 26/16 A2989 RMK A01 T02620155  RH  053%=      5-min Rain = 0
KASR 140610Z 16010KT 26/16 A2989 RMK A01 T02620156  RH  053%=      5-min Rain = 0
KASR 140615Z 16010G16KT 26/16 A2989 RMK A01 T02620156  RH  053%=      5-min Rain = 0
KASR 140620Z 16010KT 26/16 A2989 RMK A01 T02610157  RH  054%=      5-min Rain = 0
KASR 140625Z 16010G15KT 26/16 A2988 RMK A01 T02610157  RH  054%=      5-min Rain = 0
KASR 140630Z 16009G14KT 26/16 A2988 RMK A01 T02610158  RH  054%=      5-min Rain = 0
KASR 140635Z 16010KT 26/16 A2988 RMK A01 T02610158  RH  054%=      5-min Rain = 0
KASR 140640Z 16011KT 26/16 A2989 RMK A01 T02620159  RH  054%=      5-min Rain = 0
KASR 140645Z 16011G17KT 26/16 A2988 RMK A01 T02630160  RH  054%=      5-min Rain = 0
KASR 140650Z 17010KT 26/16 A2988 RMK A01 T02620160  RH  054%=      5-min Rain = 0
KASR 140655Z 17009G16KT 26/16 A2989 RMK A01 T02610160  RH  055%=      5-min Rain = 0
KASR 140700Z 16010KT 26/16 A2988 RMK A01 T02600160  RH  055%=      5-min Rain = 0
KASR 140705Z 16009KT 26/16 A2988 RMK A01 T02600160  RH  055%=      5-min Rain = 0
KASR 140710Z 16008G13KT 26/16 A2988 RMK A01 T02590161  RH  056%=      5-min Rain = 0
KASR 140715Z 16008G14KT 26/16 A2988 RMK A01 T02590161  RH  056%=      5-min Rain = 0
KASR 140720Z 16008KT 26/16 A2988 RMK A01 T02590161  RH  056%=      5-min Rain = 0
KASR 140725Z 16008KT 26/16 A2988 RMK A01 T02580161  RH  056%=      5-min Rain = 0
KASR 140730Z 16008KT 26/16 A2988 RMK A01 T02570161  RH  057%=      5-min Rain = 0
KASR 140735Z 16008KT 26/16 A2988 RMK A01 T02570162  RH  057%=      5-min Rain = 0
KASR 140740Z 16007KT 26/16 A2988 RMK A01 T02560162  RH  057%=      5-min Rain = 0
KASR 140745Z 16007KT 26/16 A2989 RMK A01 T02560162  RH  057%=      5-min Rain = 0
KASR 140750Z 16005KT 26/16 A2989 RMK A01 T02550162  RH  058%=      5-min Rain = 0
KASR 140755Z 15005KT 25/16 A2989 RMK A01 T02530162  RH  058%=      5-min Rain = 0
KASR 140800Z 15005KT 25/16 A2989 RMK A01 T02510162  RH  059%=      5-min Rain = 0
KASR 140805Z 15004KT 25/16 A2989 RMK A01 T02510162  RH  059%=      5-min Rain = 0
KASR 140810Z 14003KT 25/16 A2989 RMK A01 T02490162  RH  060%=      5-min Rain = 0
KASR 140815Z 14003KT 25/16 A2989 RMK A01 T02480162  RH  060%=      5-min Rain = 0
KASR 140820Z 13003KT 25/16 A2989 RMK A01 T02460162  RH  061%=      5-min Rain = 0
KASR 140825Z 13003KT 24/16 A2989 RMK A01 T02440162  RH  062%=      5-min Rain = 0
KASR 140830Z 12004KT 24/16 A299 RMK A01 T02410162  RH  063%=      5-min Rain = 0
KASR 140835Z 11003KT 24/16 A299 RMK A01 T02380162  RH  064%=      5-min Rain = 0
KASR 140840Z 09004KT 24/16 A299 RMK A01 T02360162  RH  065%=      5-min Rain = 0
KASR 140845Z 06004KT 23/16 A299 RMK A01 T02340162  RH  065%=      5-min Rain = 0
KASR 140850Z 07004KT 23/16 A299 RMK A01 T02320162  RH  066%=      5-min Rain = 0
KASR 140855Z 08004KT 23/16 A299 RMK A01 T02290161  RH  067%=      5-min Rain = 0
KASR 140900Z 09004KT 23/16 A299 RMK A01 T02270160  RH  068%=      5-min Rain = 0
KASR 140905Z 09004KT 23/16 A2991 RMK A01 T02250160  RH  069%=      5-min Rain = 0
KASR 140910Z 08004KT 22/16 A2991 RMK A01 T02220160  RH  070%=      5-min Rain = 0
KASR 140915Z 08004KT 22/16 A2991 RMK A01 T02210160  RH  070%=      5-min Rain = 0
KASR 140920Z 09005KT 22/16 A2991 RMK A01 T02210160  RH  070%=      5-min Rain = 0
KASR 140925Z 09005KT 22/16 A2991 RMK A01 T02210160  RH  070%=      5-min Rain = 0
KASR 140930Z 10004KT 22/16 A2991 RMK A01 T02220161  RH  070%=      5-min Rain = 0
KASR 140935Z 10004KT 22/16 A2991 RMK A01 T02220161  RH  070%=      5-min Rain = 0
KASR 140940Z 10004KT 22/16 A2991 RMK A01 T02220162  RH  070%=      5-min Rain = 0
KASR 140945Z 10005KT 22/16 A2991 RMK A01 T02220162  RH  070%=      5-min Rain = 0
KASR 140950Z 11005KT 22/16 A2991 RMK A01 T02240163  RH  070%=      5-min Rain = 0
KASR 140955Z 11005KT 23/16 A2991 RMK A01 T02270164  RH  069%=      5-min Rain = 0
KASR 141000Z 11005KT 23/17 A2991 RMK A01 T02290165  RH  069%=      5-min Rain = 0
KASR 141005Z 11005KT 23/17 A2991 RMK A01 T02300166  RH  069%=      5-min Rain = 0
KASR 141010Z 11005KT 23/17 A2992 RMK A01 T02300166  RH  069%=      5-min Rain = 0
KASR 141015Z 11006KT 23/17 A2992 RMK A01 T02290166  RH  069%=      5-min Rain = 0
KASR 141020Z 11005KT 23/17 A2992 RMK A01 T02280166  RH  070%=      5-min Rain = 0
KASR 141025Z 12005KT 23/17 A2992 RMK A01 T02280166  RH  070%=      5-min Rain = 0
KASR 141030Z 11005KT 23/17 A2992 RMK A01 T02270166  RH  070%=      5-min Rain = 0
KASR 141035Z 12005KT 23/17 A2992 RMK A01 T02270166  RH  070%=      5-min Rain = 0
KASR 141040Z 12005KT 23/17 A2992 RMK A01 T02270166  RH  070%=      5-min Rain = 0
KASR 141045Z 11005KT 23/17 A2992 RMK A01 T02270166  RH  070%=      5-min Rain = 0
KASR 141050Z 12005KT 23/17 A2992 RMK A01 T02270167  RH  070%=      5-min Rain = 0
KASR 141055Z 12005KT 23/17 A2992 RMK A01 T02260166  RH  071%=      5-min Rain = 0
KASR 141100Z 12005KT 23/17 A2992 RMK A01 T02260166  RH  071%=      5-min Rain = 0
KASR 141105Z 12006KT 23/17 A2992 RMK A01 T02260167  RH  071%=      5-min Rain = 0
KASR 141110Z 12005KT 23/17 A2992 RMK A01 T02260167  RH  071%=      5-min Rain = 0
KASR 141115Z 12005KT 23/17 A2992 RMK A01 T02260168  RH  071%=      5-min Rain = 0
KASR 141120Z 13004KT 23/17 A2992 RMK A01 T02250168  RH  072%=      5-min Rain = 0
KASR 141125Z 14005KT 23/17 A2993 RMK A01 T02260169  RH  072%=      5-min Rain = 0
KASR 141130Z 14006KT 23/17 A2993 RMK A01 T02290171  RH  071%=      5-min Rain = 0
KASR 141135Z 14006KT 23/17 A2993 RMK A01 T02300171  RH  071%=      5-min Rain = 0
KASR 141140Z 14006KT 23/17 A2993 RMK A01 T02300171  RH  071%=      5-min Rain = 0
KASR 141145Z 15006KT 23/17 A2993 RMK A01 T02300171  RH  071%=      5-min Rain = 0
KASR 141150Z 14005KT 23/17 A2993 RMK A01 T02300172  RH  072%=      5-min Rain = 0
KASR 141155Z 14005KT 23/17 A2993 RMK A01 T02290172  RH  072%=      5-min Rain = 0
KASR 141200Z 14004KT 23/17 A2993 RMK A01 T02280172  RH  072%=      5-min Rain = 0
KASR 141205Z 14005KT 23/17 A2994 RMK A01 T02280172  RH  073%=      5-min Rain = 0
KASR 141210Z 14005KT 23/17 A2994 RMK A01 T02290173  RH  073%=      5-min Rain = 0
KASR 141215Z 14006KT 23/17 A2993 RMK A01 T02290173  RH  073%=      5-min Rain = 0
KASR 141220Z 14005KT 23/17 A2993 RMK A01 T02300174  RH  073%=      5-min Rain = 0
KASR 141225Z 14005KT 23/17 A2994 RMK A01 T02300174  RH  073%=      5-min Rain = 0
KASR 141230Z 15005KT 23/18 A2994 RMK A01 T02310175  RH  073%=      5-min Rain = 0
KASR 141235Z 15005KT 23/18 A2994 RMK A01 T02320176  RH  073%=      5-min Rain = 0
KASR 141240Z 15005KT 23/18 A2994 RMK A01 T02320176  RH  073%=      5-min Rain = 0
KASR 141245Z 15005KT 23/18 A2994 RMK A01 T02330177  RH  073%=      5-min Rain = 0
KASR 141250Z 14006KT 23/18 A2994 RMK A01 T02340178  RH  072%=      5-min Rain = 0
KASR 141255Z 14006KT 24/18 A2994 RMK A01 T02370179  RH  072%=      5-min Rain = 0
KASR 141300Z 14005KT 24/18 A2994 RMK A01 T02410179  RH  070%=      5-min Rain = 0
KASR 141305Z 15006KT 24/18 A2995 RMK A01 T02420180  RH  070%=      5-min Rain = 0
KASR 141310Z 15006KT 24/18 A2995 RMK A01 T02400180  RH  071%=      5-min Rain = 0
KASR 141315Z 15006KT 24/18 A2995 RMK A01 T02400180  RH  071%=      5-min Rain = 0
KASR 141320Z 15005KT 24/18 A2995 RMK A01 T02410181  RH  071%=      5-min Rain = 0
KASR 141325Z 15007KT 25/18 A2995 RMK A01 T02470183  RH  069%=      5-min Rain = 0
KASR 141330Z 15008KT 25/18 A2995 RMK A01 T02510184  RH  068%=      5-min Rain = 0
KASR 141335Z 15007KT 25/19 A2995 RMK A01 T02540185  RH  067%=      5-min Rain = 0
KASR 141340Z 16006KT 26/19 A2996 RMK A01 T02580186  RH  066%=      5-min Rain = 0
KASR 141345Z 15007KT 26/19 A2996 RMK A01 T02610187  RH  065%=      5-min Rain = 0
KASR 141350Z 16007G12KT 26/19 A2996 RMK A01 T02640187  RH  064%=      5-min Rain = 0
KASR 141355Z 16009G14KT 26/19 A2995 RMK A01 T02640188  RH  065%=      5-min Rain = 0
KASR 141400Z 17009G15KT 27/19 A2995 RMK A01 T02650189  RH  064%=      5-min Rain = 0
KASR 141405Z 17009G15KT 27/19 A2995 RMK A01 T02730190  RH  062%=      5-min Rain = 0
KASR 141410Z 17014G19KT 27/19 A2995 RMK A01 T02700189  RH  063%=      5-min Rain = 0
KASR 141415Z 17011KT 27/19 A2995 RMK A01 T02700189  RH  063%=      5-min Rain = 0
KASR 141420Z 18012G17KT 27/19 A2995 RMK A01 T02740189  RH  061%=      5-min Rain = 0
KASR 141425Z 17012KT 27/19 A2995 RMK A01 T02730189  RH  062%=      5-min Rain = 0
KASR 141430Z 17013KT 27/19 A2995 RMK A01 T02730189  RH  062%=      5-min Rain = 0
KASR 141435Z 17013KT 28/19 A2995 RMK A01 T02760190  RH  061%=      5-min Rain = 0
KASR 141440Z 16012G17KT 27/19 A2995 RMK A01 T02740189  RH  061%=      5-min Rain = 0
KASR 141445Z 18012G17KT 27/19 A2995 RMK A01 T02740189  RH  061%=      5-min Rain = 0
KASR 141450Z 17011G17KT 28/19 A2995 RMK A01 T02800190  RH  060%=      5-min Rain = 0
KASR 141455Z 17009KT 28/19 A2995 RMK A01 T02810190  RH  059%=      5-min Rain = 0
KASR 141500Z 19012G20KT 28/19 A2995 RMK A01 T02840190  RH  058%=      5-min Rain = 0
KASR 141505Z 18013KT 28/19 A2995 RMK A01 T02830190  RH  058%=      5-min Rain = 0
KASR 141510Z 19012G17KT 28/19 A2995 RMK A01 T02840190  RH  058%=      5-min Rain = 0
KASR 141515Z 18011KT 28/19 A2995 RMK A01 T02830190  RH  058%=      5-min Rain = 0
KASR 141520Z 17011KT 29/19 A2995 RMK A01 T02870190  RH  057%=      5-min Rain = 0
KASR 141525Z 19013G19KT 29/19 A2995 RMK A01 T02890189  RH  056%=      5-min Rain = 0
KASR 141530Z 20011G18KT 29/19 A2995 RMK A01 T02870188  RH  057%=      5-min Rain = 0
KASR 141535Z 19013G19KT 29/19 A2995 RMK A01 T02870188  RH  057%=      5-min Rain = 0
KASR 141540Z 18014G20KT 29/19 A2995 RMK A01 T02940189  RH  054%=      5-min Rain = 0
KASR 141545Z 18010G16KT 30/19 A2995 RMK A01 T02980189  RH  053%=      5-min Rain = 0
KASR 141550Z 19012G20KT 30/19 A2995 RMK A01 T02960188  RH  054%=      5-min Rain = 0
KASR 141555Z 18010G15KT 30/19 A2994 RMK A01 T02980189  RH  053%=      5-min Rain = 0
KASR 141600Z 19012G18KT 31/19 A2994 RMK A01 T03060189  RH  051%=      5-min Rain = 0
KASR 141605Z 18014G19KT 30/19 A2994 RMK A01 T03010188  RH  052%=      5-min Rain = 0
KASR 141610Z 18011KT 30/19 A2994 RMK A01 T02970188  RH  053%=      5-min Rain = 0
KASR 141615Z 17011G18KT 30/19 A2994 RMK A01 T03010188  RH  052%=      5-min Rain = 0
KASR 141620Z 20011KT 30/19 A2994 RMK A01 T03030188  RH  052%=      5-min Rain = 0
KASR 141625Z 19012G17KT 30/19 A2994 RMK A01 T03010187  RH  052%=      5-min Rain = 0
KASR 141630Z 19011KT 30/19 A2994 RMK A01 T03030188  RH  051%=      5-min Rain = 0
KASR 141635Z 20010KT 31/19 A2994 RMK A01 T03090187  RH  050%=      5-min Rain = 0
KASR 141640Z 20010G15KT 31/19 A2994 RMK A01 T03110188  RH  049%=      5-min Rain = 0
KASR 141645Z 18012G18KT 31/19 A2994 RMK A01 T03090189  RH  050%=      5-min Rain = 0
KASR 141650Z 17011G17KT 31/19 A2993 RMK A01 T03120189  RH  050%=      5-min Rain = 0
KASR 141655Z 18012G17KT 31/19 A2993 RMK A01 T03120188  RH  049%=      5-min Rain = 0
KASR 141700Z 17011G19KT 32/19 A2993 RMK A01 T03150189  RH  048%=      5-min Rain = 0
KASR 141705Z 18009G16KT 32/19 A2993 RMK A01 T03150188  RH  048%=      5-min Rain = 0
KASR 141710Z 17012G19KT 32/19 A2993 RMK A01 T03150189  RH  048%=      5-min Rain = 0
KASR 141715Z 17010KT 32/19 A2993 RMK A01 T03160189  RH  048%=      5-min Rain = 0
KASR 141720Z 17011G21KT 32/19 A2993 RMK A01 T03150189  RH  048%=      5-min Rain = 0
KASR 141725Z 17011KT 32/19 A2992 RMK A01 T03170188  RH  048%=      5-min Rain = 0
KASR 141730Z 18011G18KT 32/19 A2992 RMK A01 T03190188  RH  047%=      5-min Rain = 0
KASR 141735Z 19012G18KT 32/19 A2992 RMK A01 T03200187  RH  046%=      5-min Rain = 0
KASR 141740Z 18011G17KT 32/19 A2992 RMK A01 T03210188  RH  046%=      5-min Rain = 0
KASR 141745Z 17011G16KT 33/19 A2991 RMK A01 T03250188  RH  045%=      5-min Rain = 0
KASR 141750Z 17014G21KT 33/19 A2991 RMK A01 T03290188  RH  044%=      5-min Rain = 0
KASR 141755Z 17011G17KT 32/19 A2991 RMK A01 T03240187  RH  045%=      5-min Rain = 0
KASR 141800Z 17011G20KT 33/19 A2991 RMK A01 T03300188  RH  044%=      5-min Rain = 0
KASR 141805Z 16011G19KT 33/19 A2991 RMK A01 T03290187  RH  044%=      5-min Rain = 0
KASR 141810Z 16009G16KT 34/19 A2991 RMK A01 T03360188  RH  043%=      5-min Rain = 0
KASR 141815Z 16010G18KT 33/19 A2991 RMK A01 T03330186  RH  043%=      5-min Rain = 0
KASR 141820Z 17012G19KT 33/19 A2991 RMK A01 T03300187  RH  044%=      5-min Rain = 0
KASR 141825Z 18013G18KT 33/19 A299 RMK A01 T03340185  RH  042%=      5-min Rain = 0
KASR 141830Z 17012G18KT 33/19 A299 RMK A01 T03340186  RH  043%=      5-min Rain = 0
KASR 141835Z 16010G16KT 33/19 A299 RMK A01 T03330186  RH  043%=      5-min Rain = 0
KASR 141840Z 16011G17KT 33/19 A299 RMK A01 T03320185  RH  043%=      5-min Rain = 0
KASR 141845Z 16012KT 33/19 A299 RMK A01 T03320185  RH  043%=      5-min Rain = 0
KASR 141850Z 17011G16KT 34/19 A299 RMK A01 T03400185  RH  041%=      5-min Rain = 0
KASR 141855Z 15012G18KT 34/19 A2989 RMK A01 T03390185  RH  041%=      5-min Rain = 0
KASR 141900Z 17011G18KT 34/19 A2989 RMK A01 T03350185  RH  042%=      5-min Rain = 0
KASR 141905Z 15014G19KT 33/18 A2989 RMK A01 T03320184  RH  043%=      5-min Rain = 0
KASR 141910Z 15011G19KT 32/18 A2989 RMK A01 T03230184  RH  045%=      5-min Rain = 0
KASR 141915Z 15011G18KT 33/18 A2989 RMK A01 T03260184  RH  044%=      5-min Rain = 0
KASR 141920Z 16010G16KT 33/18 A2989 RMK A01 T03300183  RH  043%=      5-min Rain = 0
KASR 141925Z 16012KT 34/18 A2988 RMK A01 T03390184  RH  041%=      5-min Rain = 0
KASR 141930Z 15010G17KT 34/18 A2988 RMK A01 T03430184  RH  040%=      5-min Rain = 0
KASR 141935Z 16012G20KT 34/18 A2988 RMK A01 T03400184  RH  041%=      5-min Rain = 0
KASR 141940Z 14009G16KT 34/19 A2988 RMK A01 T03390185  RH  041%=      5-min Rain = 0
KASR 141945Z 17012G18KT 34/18 A2988 RMK A01 T03400184  RH  041%=      5-min Rain = 0
KASR 141950Z 14011G20KT 34/19 A2987 RMK A01 T03390185  RH  041%=      5-min Rain = 0
KASR 141955Z 15012G20KT 34/18 A2987 RMK A01 T03370184  RH  041%=      5-min Rain = 0
KASR 142000Z 15012G19KT 33/18 A2987 RMK A01 T03300184  RH  043%=      5-min Rain = 0
KASR 142005Z 16012G18KT 33/18 A2987 RMK A01 T03250182  RH  044%=      5-min Rain = 0
KASR 142010Z 15012G19KT 32/19 A2987 RMK A01 T03210185  RH  046%=      5-min Rain = 0
KASR 142015Z 14010G17KT 32/19 A2987 RMK A01 T03190186  RH  046%=      5-min Rain = 0
KASR 142020Z 14012G17KT 32/19 A2987 RMK A01 T03150186  RH  047%=      5-min Rain = 0
KASR 142025Z 14010G16KT 31/19 A2987 RMK A01 T03140186  RH  048%=      5-min Rain = 0
KASR 142030Z 13009KT 31/19 A2987 RMK A01 T03130186  RH  048%=      5-min Rain = 0
KASR 142035Z 13008KT 31/19 A2986 RMK A01 T03130187  RH  048%=      5-min Rain = 0
KASR 142040Z 15010KT 32/19 A2986 RMK A01 T03150186  RH  047%=      5-min Rain = 0
KASR 142045Z 15008G13KT 32/19 A2985 RMK A01 T03180186  RH  047%=      5-min Rain = 0
KASR 142050Z 15009G14KT 33/19 A2984 RMK A01 T03250186  RH  045%=      5-min Rain = 0
KASR 142055Z 14011KT 33/19 A2982 RMK A01 T03320186  RH  043%=      5-min Rain = 0
KASR 142100Z 14010G16KT 33/19 A2982 RMK A01 T03340187  RH  043%=      5-min Rain = 0
KASR 142105Z 15012G19KT 34/19 A2981 RMK A01 T03350186  RH  042%=      5-min Rain = 0
KASR 142110Z 14011G17KT 33/19 A2981 RMK A01 T03290185  RH  044%=      5-min Rain = 0
KASR 142115Z 15012G18KT 32/18 A298 RMK A01 T03230183  RH  045%=      5-min Rain = 0
KASR 142120Z 15013G19KT 32/18 A298 RMK A01 T03200181  RH  045%=      5-min Rain = 0
KASR 142125Z 15010G16KT 32/18 A2982 RMK A01 T03170181  RH  045%=      5-min Rain = 0
KASR 142130Z 15010G15KT 32/18 A2982 RMK A01 T03170180  RH  045%=      5-min Rain = 0
KASR 142135Z 16011G17KT 32/18 A2983 RMK A01 T03150182  RH  046%=      5-min Rain = 0
KASR 142140Z 15012G18KT 31/18 A2983 RMK A01 T03110182  RH  047%=      5-min Rain = 0
KASR 142145Z 15009G15KT 31/18 A2983 RMK A01 T03100183  RH  048%=      5-min Rain = 0
KASR 142150Z 15010G16KT 31/18 A2982 RMK A01 T03090183  RH  048%=      5-min Rain = 0
KASR 142155Z 14010G17KT 31/18 A2982 RMK A01 T03070184  RH  049%=      5-min Rain = 0
KASR 142200Z 15010G16KT 31/18 A2982 RMK A01 T03060183  RH  049%=      5-min Rain = 0
KASR 142205Z 15010G17KT 31/18 A2982 RMK A01 T03060183  RH  049%=      5-min Rain = 0
KASR 142210Z 16010G16KT 31/18 A2983 RMK A01 T03050183  RH  049%=      5-min Rain = 0
KASR 142215Z 16011KT 30/18 A2983 RMK A01 T03040183  RH  050%=      5-min Rain = 0
KASR 142220Z 16012G17KT 30/18 A2984 RMK A01 T03010182  RH  050%=      5-min Rain = 0
KASR 142225Z 17010G15KT 30/18 A2984 RMK A01 T03000182  RH  050%=      5-min Rain = 0
KASR 142230Z 17009G14KT 30/18 A2985 RMK A01 T02990182  RH  051%=      5-min Rain = 0
KASR 142235Z 16008G13KT 30/18 A2985 RMK A01 T02990183  RH  051%=      5-min Rain = 0
KASR 142240Z 16011G17KT 30/18 A2985 RMK A01 T02980183  RH  051%=      5-min Rain = 0
KASR 142245Z 15011G17KT 30/18 A2984 RMK A01 T02970183  RH  052%=      5-min Rain = 0
KASR 142250Z 15009G15KT 30/18 A2984 RMK A01 T02960183  RH  052%=      5-min Rain = 0
KASR 142255Z 15010KT 30/18 A2984 RMK A01 T02960183  RH  052%=      5-min Rain = 0
KASR 142300Z 14010G17KT 30/18 A2984 RMK A01 T02970184  RH  052%=      5-min Rain = 0
KASR 142305Z 15012G17KT 31/18 A2984 RMK A01 T03080184  RH  049%=      5-min Rain = 0
KASR 142310Z 15012G17KT 31/18 A2983 RMK A01 T03130184  RH  047%=      5-min Rain = 0
KASR 142315Z 16009G15KT 31/18 A2983 RMK A01 T03110183  RH  048%=      5-min Rain = 0
KASR 142320Z 16012G18KT 31/18 A2983 RMK A01 T03120182  RH  047%=      5-min Rain = 0
KASR 142325Z 16011G17KT 32/18 A2982 RMK A01 T03160182  RH  046%=      5-min Rain = 0
KASR 142330Z 15011G16KT 32/18 A2982 RMK A01 T03160182  RH  046%=      5-min Rain = 0
KASR 142335Z 14010G17KT 32/18 A2981 RMK A01 T03160182  RH  046%=      5-min Rain = 0
KASR 142340Z 15011G18KT 31/18 A2981 RMK A01 T03140181  RH  046%=      5-min Rain = 0
KASR 142345Z 15010G16KT 31/18 A298 RMK A01 T03140180  RH  046%=      5-min Rain = 0
KASR 142350Z 16011KT 32/18 A298 RMK A01 T03150180  RH  046%=      5-min Rain = 0
KASR 142355Z 17013KT 32/18 A298 RMK A01 T03150176  RH  045%=      5-min Rain = 0
KASR 150000Z 17012G17KT 32/18 A298 RMK A01 T03150176  RH  045%=      5-min Rain = 0
KASR 150005Z 16010G15KT 32/18 A2979 RMK A01 T03150177  RH  045%=      5-min Rain = 0
KASR 150010Z 15011KT 32/18 A2979 RMK A01 T03160177  RH  045%=      5-min Rain = 0
KASR 150015Z 16009G14KT 31/18 A2979 RMK A01 T03120176  RH  045%=      5-min Rain = 0
KASR 150020Z 15009KT 31/18 A2979 RMK A01 T03080176  RH  046%=      5-min Rain = 0
KASR 150025Z 15007KT 31/18 A2979 RMK A01 T03060177  RH  047%=      5-min Rain = 0
KASR 150030Z 14008G13KT 31/18 A2979 RMK A01 T03100177  RH  046%=      5-min Rain = 0
KASR 150035Z 15007G12KT 31/18 A298 RMK A01 T03110176  RH  045%=      5-min Rain = 0
KASR 150040Z 13009KT 31/18 A298 RMK A01 T03100175  RH  045%=      5-min Rain = 0
KASR 150045Z 13008KT 31/18 A2981 RMK A01 T03090177  RH  046%=      5-min Rain = 0
KASR 150050Z 13008KT 31/18 A2981 RMK A01 T03070178  RH  047%=      5-min Rain = 0
KASR 150055Z 12008G15KT 31/18 A2982 RMK A01 T03050179  RH  048%=      5-min Rain = 0
KASR 150100Z 11007G12KT 30/18 A2982 RMK A01 T03030178  RH  048%=      5-min Rain = 0
KASR 150105Z 10009KT 30/18 A2982 RMK A01 T02990178  RH  049%=      5-min Rain = 0
KASR 150110Z 11007KT 30/18 A2983 RMK A01 T02960177  RH  050%=      5-min Rain = 0
KASR 150115Z 10007KT 29/18 A2983 RMK A01 T02940176  RH  050%=      5-min Rain = 0
KASR 150120Z 11006KT 29/18 A2984 RMK A01 T02920176  RH  051%=      5-min Rain = 0
KASR 150125Z 11007KT 29/18 A2984 RMK A01 T02890175  RH  051%=      5-min Rain = 0
KASR 150130Z 12006KT 29/17 A2984 RMK A01 T02890171  RH  050%=      5-min Rain = 0
KASR 150135Z 12006KT 29/17 A2984 RMK A01 T02860174  RH  052%=      5-min Rain = 0
KASR 150140Z 13007KT 28/17 A2984 RMK A01 T02830173  RH  052%=      5-min Rain = 0
KASR 150145Z 14008KT 28/17 A2985 RMK A01 T02830169  RH  051%=      5-min Rain = 0
KASR 150150Z 14007KT 28/17 A2985 RMK A01 T02830166  RH  050%=      5-min Rain = 0
KASR 150155Z 14007G12KT 28/16 A2985 RMK A01 T02810164  RH  050%=      5-min Rain = 0
KASR 150200Z 13007KT 28/17 A2986 RMK A01 T02800165  RH  051%=      5-min Rain = 0
KASR 150205Z 12006KT 28/17 A2986 RMK A01 T02780165  RH  052%=      5-min Rain = 0
KASR 150210Z 12006KT 28/17 A2986 RMK A01 T02760166  RH  052%=      5-min Rain = 0
KASR 150215Z 12006KT 28/17 A2986 RMK A01 T02750167  RH  053%=      5-min Rain = 0
KASR 150220Z 12004KT 27/17 A2987 RMK A01 T02740168  RH  053%=      5-min Rain = 0
KASR 150225Z 08003KT 27/17 A2987 RMK A01 T02730168  RH  054%=      5-min Rain = 0
KASR 150230Z 34009G14KT 27/17 A299 RMK A01 T02700167  RH  055%=      5-min Rain = 0
KASR 150235Z 34014G20KT 27/17 A2991 RMK A01 T02740168  RH  054%=      5-min Rain = 0
KASR 150240Z 00012KT 28/18 A2991 RMK A01 T02780177  RH  055%=      5-min Rain = 0
KASR 150245Z 03008G14KT 28/17 A2991 RMK A01 T02800174  RH  054%=      5-min Rain = 0
KASR 150250Z 05007KT 28/18 A2991 RMK A01 T02790175  RH  055%=      5-min Rain = 0
KASR 150255Z 04006KT 28/18 A2992 RMK A01 T02770175  RH  055%=      5-min Rain = 0
KASR 150300Z 05007KT 28/18 A2993 RMK A01 T02760176  RH  056%=      5-min Rain = 0
KASR 150305Z 05006G12KT 28/18 A2993 RMK A01 T02760176  RH  056%=      5-min Rain = 0
KASR 150310Z 06007KT 28/18 A2993 RMK A01 T02760177  RH  056%=      5-min Rain = 0
KASR 150315Z 06007G14KT 27/18 A2993 RMK A01 T02740178  RH  057%=      5-min Rain = 0
KASR 150320Z 05009G15KT 27/17 A2993 RMK A01 T02730173  RH  056%=      5-min Rain = 0
KASR 150325Z 05009G14KT 27/16 A2993 RMK A01 T02690159  RH  052%=      5-min Rain = 0
KASR 150330Z 06010G15KT 27/14 A2993 RMK A01 T02650138  RH  046%=      5-min Rain = 0
KASR 150335Z 07008KT 26/13 A2992 RMK A01 T02620131  RH  045%=      5-min Rain = 0
KASR 150340Z 07010G16KT 26/13 A2991 RMK A01 T02610131  RH  045%=      5-min Rain = 0
KASR 150345Z 07013G18KT 26/12 A2991 RMK A01 T02590123  RH  044%=      5-min Rain = 0
KASR 150350Z 07009G14KT 26/12 A2991 RMK A01 T02570119  RH  043%=      5-min Rain = 0
KASR 150355Z 07008G14KT 26/12 A2991 RMK A01 T02560119  RH  043%=      5-min Rain = 0
KASR 150400Z 08008G13KT 26/12 A2991 RMK A01 T02550118  RH  043%=      5-min Rain = 0
KASR 150405Z 09007KT 25/12 A2991 RMK A01 T02540119  RH  044%=      5-min Rain = 0
KASR 150410Z 09008KT 25/12 A299 RMK A01 T02510119  RH  044%=      5-min Rain = 0
KASR 150415Z 10007G12KT 25/12 A299 RMK A01 T02500119  RH  045%=      5-min Rain = 0
KASR 150420Z 10007KT 25/12 A299 RMK A01 T02490119  RH  045%=      5-min Rain = 0
KASR 150425Z 10005KT 25/12 A2991 RMK A01 T02480119  RH  045%=      5-min Rain = 0
KASR 150430Z 11006KT 25/12 A299 RMK A01 T02450119  RH  046%=      5-min Rain = 0
KASR 150435Z 11006KT 24/12 A299 RMK A01 T02430119  RH  047%=      5-min Rain = 0
KASR 150440Z 11007KT 24/12 A299 RMK A01 T02420120  RH  047%=      5-min Rain = 0
KASR 150445Z 12006KT 24/12 A2989 RMK A01 T02430121  RH  047%=      5-min Rain = 0
KASR 150450Z 11007KT 24/12 A2989 RMK A01 T02410122  RH  048%=      5-min Rain = 0
KASR 150455Z 12007KT 24/13 A2989 RMK A01 T02410125  RH  049%=      5-min Rain = 0

Page generated in 0.0088 seconds.